createdAt,value
2023-01-01T00:04:37.331Z,10.81
2023-01-01T00:14:42.478Z,10.69
2023-01-01T00:24:44.977Z,10.55
2023-01-01T00:34:47.390Z,10.39
2023-01-01T00:44:49.752Z,10.11
2023-01-01T00:54:52.211Z,9.92
2023-01-01T01:04:54.679Z,9.62
2023-01-01T01:14:57.260Z,9.45
2023-01-01T01:25:00.325Z,9.22
2023-01-01T01:35:02.807Z,9.01
2023-01-01T01:45:06.498Z,9.12
2023-01-01T01:55:16.744Z,9.15
2023-01-01T02:05:20.450Z,8.95
2023-01-01T02:15:28.226Z,8.81
2023-01-01T02:25:36.686Z,9.01
2023-01-01T02:35:45.174Z,9.18
2023-01-01T02:45:47.916Z,9.48
2023-01-01T02:56:05.543Z,9.83
2023-01-01T03:06:30.620Z,10.17
2023-01-01T03:16:39.038Z,10.24
2023-01-01T03:26:42.918Z,10.27
2023-01-01T03:36:51.694Z,10.22
2023-01-01T03:46:54.274Z,10.05
2023-01-01T03:57:28.824Z,9.89
2023-01-01T04:07:32.335Z,9.72
2023-01-01T04:17:34.665Z,9.53
2023-01-01T04:27:38.228Z,9.43
2023-01-01T04:37:43.344Z,9.21
2023-01-01T04:47:45.671Z,9.00
2023-01-01T04:57:48.081Z,8.71
2023-01-01T05:07:50.326Z,8.40
2023-01-01T05:17:54.461Z,8.03
2023-01-01T05:27:56.668Z,7.86
2023-01-01T05:37:59.918Z,7.74
2023-01-01T05:48:03.861Z,7.52
2023-01-01T05:58:06.575Z,7.38
2023-01-01T06:08:08.873Z,7.15
2023-01-01T06:18:11.199Z,6.93
2023-01-01T06:28:13.505Z,6.54
2023-01-01T06:38:15.884Z,6.38
2023-01-01T06:48:18.199Z,6.33
2023-01-01T06:58:20.890Z,6.41
2023-01-01T07:08:23.374Z,6.57
2023-01-01T07:18:26.046Z,6.72
2023-01-01T07:28:28.580Z,6.82
2023-01-01T07:38:31.067Z,7.14
2023-01-01T07:48:39.528Z,7.41
2023-01-01T07:58:42.463Z,7.58
2023-01-01T08:08:44.761Z,7.75
2023-01-01T08:18:47.121Z,8.04
2023-01-01T08:28:55.171Z,8.40
2023-01-01T08:38:59.727Z,8.72
2023-01-01T08:49:02.414Z,9.01
2023-01-01T08:59:05.531Z,9.30
2023-01-01T09:09:08.800Z,9.73
2023-01-01T09:19:11.307Z,10.12
2023-01-01T09:29:18.125Z,10.45
2023-01-01T09:39:20.703Z,10.74
2023-01-01T09:49:32.703Z,11.00
2023-01-01T09:59:35.127Z,11.37
2023-01-01T10:10:08.561Z,11.64
2023-01-01T10:20:25.601Z,11.63
2023-01-01T10:30:29.383Z,11.51
2023-01-01T10:40:32.909Z,11.55
2023-01-01T10:50:46.197Z,11.61
2023-01-01T11:00:58.873Z,11.56
2023-01-01T11:11:02.985Z,11.61
2023-01-01T11:21:07.261Z,11.64
2023-01-01T11:31:09.836Z,11.73
2023-01-01T11:41:12.840Z,11.83
2023-01-01T11:51:31.359Z,12.02
2023-01-01T12:01:53.671Z,12.32
2023-01-01T12:12:07.384Z,12.75
2023-01-01T12:22:19.968Z,13.39
2023-01-01T12:32:57.940Z,13.77
2023-01-01T12:43:12.392Z,13.92
2023-01-01T12:53:58.329Z,13.90
2023-01-01T13:04:05.433Z,13.83
2023-01-01T13:14:08.044Z,13.69
2023-01-01T13:24:23.343Z,13.59
2023-01-01T13:34:43.011Z,13.47
2023-01-01T13:44:45.552Z,13.39
2023-01-01T13:55:26.071Z,13.10
2023-01-01T14:05:35.120Z,12.82
2023-01-01T14:15:40.157Z,12.47
2023-01-01T14:25:44.717Z,11.91
2023-01-01T14:35:54.889Z,11.39
2023-01-01T14:45:57.532Z,10.89
2023-01-01T14:56:02.689Z,10.40
2023-01-01T15:06:15.777Z,9.75
2023-01-01T15:16:19.671Z,9.22
2023-01-01T15:26:34.313Z,8.69
2023-01-01T15:36:39.561Z,8.18
2023-01-01T15:46:51.406Z,7.79
2023-01-01T15:56:54.351Z,7.46
2023-01-01T16:06:58.252Z,7.08
2023-01-01T16:17:01.787Z,6.70
2023-01-01T16:27:04.441Z,6.28
2023-01-01T16:37:07.414Z,6.00
2023-01-01T16:47:10.569Z,5.78
2023-01-01T16:57:14.688Z,5.55
2023-01-01T17:07:17.369Z,5.49
2023-01-01T17:17:21.406Z,5.30
2023-01-01T17:27:24.513Z,5.01
2023-01-01T17:37:27.964Z,4.83
2023-01-01T17:47:33.285Z,4.68
2023-01-01T17:58:16.434Z,4.59
2023-01-01T18:08:19.889Z,4.52
2023-01-01T18:18:23.435Z,4.36
2023-01-01T18:28:26.673Z,4.22
2023-01-01T18:38:31.015Z,4.26
2023-01-01T18:48:33.876Z,4.28
2023-01-01T18:58:36.951Z,4.08
2023-01-01T19:08:41.859Z,3.78
2023-01-01T19:18:45.736Z,3.53
2023-01-01T19:28:55.615Z,3.39
2023-01-01T19:38:59.064Z,3.29
2023-01-01T19:49:02.359Z,3.22
2023-01-01T19:59:05.844Z,3.08
2023-01-01T20:09:09.459Z,3.00
2023-01-01T20:19:14.617Z,2.80
2023-01-01T20:29:30.086Z,2.85
2023-01-01T20:39:35.188Z,2.69
2023-01-01T20:49:39.731Z,2.64
2023-01-01T20:59:43.356Z,2.54
2023-01-01T21:09:47.708Z,2.49
2023-01-01T21:19:56.294Z,2.44
2023-01-01T21:30:00.551Z,2.48
2023-01-01T21:40:40.363Z,2.49
2023-01-01T21:50:46.582Z,2.48
2023-01-01T22:00:49.034Z,2.39
2023-01-01T22:10:51.611Z,2.31
2023-01-01T22:20:55.935Z,2.19
2023-01-01T22:30:59.843Z,2.08
2023-01-01T22:41:02.301Z,1.93
2023-01-01T22:51:14.005Z,1.87
2023-01-01T23:01:16.502Z,1.89
2023-01-01T23:11:19.781Z,1.85
2023-01-01T23:21:27.123Z,1.75
2023-01-01T23:31:31.408Z,1.68
2023-01-01T23:41:34.897Z,1.73
2023-01-01T23:51:39.447Z,1.67
